首页
METAR-TAF:

METAR-TAF

机场 :

麥克默里堡國際機場

Fort McMurray, 艾伯塔, 加拿大

纬度: 56-39N, 经度: 111-13W, 海拔: 369米

当前天气观测

该预报发布于48分钟前的18:13 UTC
风速17节,风向西,有时为24节阵风
温度 20°C
湿度 28%
气压 1007 hPa
能見度: 14.5公里
天空无云

METAR: CYMM 021813Z AUTO 28017G24KT 9SM CLR 20/01 A2973 RMK WSHFT AT 1800Z SLP077 DENSITY ALT 2200FT

时间: 13:01 (19:01 UTC)

预报

该预报发布于23分钟前的18:38 UTC
预报有效从02日的 19点(UTC)到 03日的 07点(UTC)
风速14节,风向西转西南,有时为24节阵风
能見度: 10公里
散云层高于8000英尺
成为
从 03日的 02点(UTC)到 03日的 04点(UTC)
风速3节,风向多变

TAF: CYMM 021838Z 0219/0307 25014G24KT P6SM SCT080 BECMG 0302/0304 VRB03KT RMK FCST BASED ON AUTO OBS. NXT FCST BY 030100Z

超过4000个机场的气象观测和天气预报(METAR&TAF报告)。

可查询的气象台以黄色和红色小点在地图上表示。

将鼠标移到小点上方,可查看气象台名称。

然后点击查看天气观测和预报。

如需切换地图:点击带黑十字的绿色按钮放大地图;点击带横线的绿色按钮缩小地图;或者点击绿色箭头查看邻近地区的地图。


METAR-TAF: